Time;durP1;ratioP1;P1;durP2;ratioP2;P2;SDS_P1;SDS_P2;PMS_P1;PMS_P2;Temp;Humidity;BMP_temperature;BMP_pressure;BME280_temperature;BME280_humidity;BME280_pressure;Samples;Min_cycle;Max_cycle;Signal;HPM_P1;HPM_P2
2022/07/05 00:00:54;;;;;;;0.00;0.00;;;16.80;99.90;;;;;;5000279;28;20524;-79
2022/07/05 00:03:22;;;;;;;0.00;0.00;;;16.80;99.90;;;;;;4998760;28;20461;-78
2022/07/05 00:05:50;;;;;;;0.00;0.00;;;16.90;99.90;;;;;;4994959;28;20487;-77
2022/07/05 00:08:18;;;;;;;0.00;0.00;;;16.90;99.90;;;;;;4992213;28;20663;-76
2022/07/05 00:10:47;;;;;;;0.00;0.00;;;16.90;99.90;;;;;;4991405;28;20440;-79
2022/07/05 00:13:16;;;;;;;0.00;0.00;;;16.90;99.90;;;;;;4992806;28;20455;-76
2022/07/05 00:15:44;;;;;;;0.00;0.00;;;16.80;99.90;;;;;;5007732;28;20439;-77
2022/07/05 00:18:12;;;;;;;0.00;0.00;;;16.70;99.90;;;;;;5003711;28;20531;-76
2022/07/05 00:20:40;;;;;;;0.00;0.00;;;16.70;99.90;;;;;;4998254;28;20546;-78
2022/07/05 00:23:08;;;;;;;0.00;0.00;;;16.70;99.90;;;;;;4994313;28;20442;-79
2022/07/05 00:25:36;;;;;;;0.00;0.00;;;16.60;99.90;;;;;;4996409;28;20519;-79
2022/07/05 00:28:04;;;;;;;0.00;0.00;;;16.50;99.90;;;;;;4994418;28;20509;-78
2022/07/05 00:30:34;;;;;;;0.00;0.00;;;16.50;99.90;;;;;;4994469;28;20527;-79
2022/07/05 00:33:02;;;;;;;0.00;0.00;;;16.40;99.90;;;;;;4993335;28;21225;-77
2022/07/05 00:35:30;;;;;;;0.00;0.00;;;16.40;99.90;;;;;;4997031;28;20454;-78
2022/07/05 00:37:57;;;;;;;0.00;0.00;;;16.30;99.90;;;;;;5004861;28;20463;-79
2022/07/05 00:40:25;;;;;;;0.00;0.00;;;16.30;99.90;;;;;;5004041;28;20447;-77
2022/07/05 00:42:53;;;;;;;0.00;0.00;;;16.30;99.90;;;;;;4990389;28;20471;-78
2022/07/05 00:45:22;;;;;;;0.00;0.00;;;16.30;99.90;;;;;;4989515;28;20558;-81
2022/07/05 00:47:51;;;;;;;0.00;0.00;;;16.20;99.90;;;;;;4990991;28;20485;-81
2022/07/05 00:50:19;;;;;;;0.00;0.00;;;16.10;99.90;;;;;;4991323;28;21053;-83
2022/07/05 00:52:47;;;;;;;0.00;0.00;;;16.10;99.90;;;;;;4992176;28;20522;-82
2022/07/05 00:55:17;;;;;;;0.00;0.00;;;16.10;99.90;;;;;;4991362;28;20442;-82
2022/07/05 00:57:44;;;;;;;0.00;0.00;;;16.10;99.90;;;;;;4995503;28;20475;-80
2022/07/05 01:00:13;;;;;;;0.00;0.00;;;16.10;99.90;;;;;;4996690;28;20510;-81
2022/07/05 01:02:41;;;;;;;0.00;0.00;;;16.00;99.90;;;;;;4993910;28;20569;-80
2022/07/05 01:05:10;;;;;;;0.00;0.00;;;16.00;99.90;;;;;;4996297;28;20451;-82
2022/07/05 01:07:38;;;;;;;0.00;0.00;;;16.00;99.90;;;;;;4995520;28;20598;-81
2022/07/05 01:10:07;;;;;;;0.00;0.00;;;16.00;99.90;;;;;;4996369;28;20559;-83
2022/07/05 01:12:35;;;;;;;0.00;0.00;;;15.90;99.90;;;;;;4994592;28;20538;-82
2022/07/05 01:15:04;;;;;;;0.00;0.00;;;15.90;99.90;;;;;;4994835;28;21068;-82
2022/07/05 01:17:32;;;;;;;0.00;0.00;;;15.90;99.90;;;;;;5003540;28;20498;-81
2022/07/05 01:20:00;;;;;;;0.00;0.00;;;15.80;99.90;;;;;;5006355;28;20478;-81
2022/07/05 01:22:33;;;;;;;0.00;0.00;;;15.80;99.90;;;;;;5005838;28;20534;-80
2022/07/05 01:25:01;;;;;;;0.00;0.00;;;15.70;99.90;;;;;;5004242;28;20726;-81
2022/07/05 01:27:30;;;;;;;0.00;0.00;;;15.70;99.90;;;;;;4997512;28;20468;-80
2022/07/05 01:29:57;;;;;;;0.00;0.00;;;15.70;99.90;;;;;;4995443;28;20449;-78
2022/07/05 01:32:25;;;;;;;0.00;0.00;;;15.70;99.90;;;;;;4996982;28;20431;-78
2022/07/05 01:34:53;;;;;;;0.00;0.00;;;15.70;99.90;;;;;;4995531;28;20543;-82
2022/07/05 01:37:21;;;;;;;0.00;0.00;;;15.70;99.90;;;;;;4994756;28;20481;-83
2022/07/05 01:39:52;;;;;;;0.00;0.00;;;15.70;99.90;;;;;;4995018;28;20886;-84
2022/07/05 01:42:20;;;;;;;0.00;0.00;;;15.60;99.90;;;;;;4996131;28;20943;-79
2022/07/05 01:44:48;;;;;;;0.00;0.00;;;15.60;99.90;;;;;;4999529;28;20479;-81
2022/07/05 01:47:17;;;;;;;0.00;0.00;;;15.50;99.90;;;;;;4994067;28;20513;-78
2022/07/05 01:49:48;;;;;;;0.00;0.00;;;15.50;99.90;;;;;;4992005;28;20700;-78
2022/07/05 01:52:20;;;;;;;0.00;0.00;;;15.60;99.90;;;;;;4993334;28;20526;-80
2022/07/05 01:54:48;;;;;;;0.00;0.00;;;15.50;99.90;;;;;;4996701;28;20431;-82
2022/07/05 01:57:19;;;;;;;0.00;0.00;;;15.40;99.90;;;;;;4996401;28;20888;-82
2022/07/05 01:59:47;;;;;;;0.00;0.00;;;15.40;99.90;;;;;;4997728;28;20442;-82
2022/07/05 02:02:14;;;;;;;0.00;0.00;;;15.40;99.90;;;;;;4996650;28;21018;-83
2022/07/05 02:04:47;;;;;;;0.00;0.00;;;15.40;99.90;;;;;;4989822;28;20726;-85
2022/07/05 02:07:16;;;;;;;0.00;0.00;;;15.40;99.90;;;;;;4994066;28;20505;-83
2022/07/05 02:09:44;;;;;;;0.00;0.00;;;15.40;99.90;;;;;;4990944;28;20679;-83
2022/07/05 02:12:13;;;;;;;0.00;0.00;;;15.40;99.90;;;;;;4983679;28;20465;-73
2022/07/05 02:14:42;;;;;;;0.00;0.00;;;15.40;99.90;;;;;;4979925;28;20449;-76
2022/07/05 02:17:10;;;;;;;0.00;0.00;;;15.30;99.90;;;;;;4984825;28;20463;-82
2022/07/05 02:24:59;;;;;;;0.00;0.00;;;15.20;99.90;;;;;;4985861;28;20483;-90
2022/07/05 02:27:28;;;;;;;0.00;0.00;;;15.20;99.90;;;;;;4990445;28;20447;-90
2022/07/05 02:29:57;;;;;;;0.00;0.00;;;15.20;99.90;;;;;;4990491;28;20460;-89
2022/07/05 02:32:26;;;;;;;0.00;0.00;;;15.20;99.90;;;;;;4995692;28;20481;-90
2022/07/05 02:34:54;;;;;;;0.00;0.00;;;15.20;99.90;;;;;;4991085;28;20518;-90
2022/07/05 02:37:24;;;;;;;0.00;0.00;;;15.10;99.90;;;;;;4990300;28;20525;-89
2022/07/05 02:39:55;;;;;;;0.00;0.00;;;15.00;99.90;;;;;;4989494;28;20451;-92
2022/07/05 02:45:14;;;;;;;0.00;0.00;;;15.00;99.90;;;;;;4989963;28;20739;-91
2022/07/05 02:47:45;;;;;;;0.00;0.00;;;15.20;99.90;;;;;;4989251;28;20823;-89
2022/07/05 02:50:15;;;;;;;0.00;0.00;;;15.10;99.90;;;;;;5004642;28;20431;-91
2022/07/05 02:52:52;;;;;;;0.00;0.00;;;15.10;99.90;;;;;;4989993;28;20505;-91
2022/07/05 02:55:24;;;;;;;0.00;0.00;;;15.00;99.90;;;;;;4988188;28;20462;-91
2022/07/05 03:00:57;;;;;;;0.00;0.00;;;14.90;99.90;;;;;;4971509;28;20482;-91
2022/07/05 03:04:00;;;;;;;0.00;0.00;;;14.80;99.90;;;;;;4988023;28;20490;-91
2022/07/05 03:06:38;;;;;;;0.00;0.00;;;14.80;99.90;;;;;;4988672;28;20455;-91
2022/07/05 03:12:25;;;;;;;0.00;0.00;;;14.90;99.90;;;;;;4945324;28;20551;-90
2022/07/05 03:14:58;;;;;;;0.00;0.00;;;14.80;99.90;;;;;;4947876;29;20452;-92
2022/07/05 03:17:47;;;;;;;0.00;0.00;;;14.80;99.90;;;;;;4946823;29;20452;-91
2022/07/05 03:20:19;;;;;;;0.00;0.00;;;14.80;99.90;;;;;;4946359;29;20453;-90
2022/07/05 03:22:54;;;;;;;0.00;0.00;;;14.80;99.90;;;;;;4946152;28;21043;-91
2022/07/05 03:25:54;;;;;;;0.00;0.00;;;14.80;99.90;;;;;;4946139;29;20490;-90
2022/07/05 03:28:28;;;;;;;0.00;0.00;;;14.80;99.90;;;;;;4947028;29;20456;-91
2022/07/05 03:30:56;;;;;;;0.00;0.00;;;14.70;99.90;;;;;;4951994;29;20459;-93
2022/07/05 03:33:26;;;;;;;0.00;0.00;;;14.60;99.90;;;;;;4952537;28;20511;-92
2022/07/05 03:35:56;;;;;;;0.00;0.00;;;14.60;99.90;;;;;;4954966;29;20452;-93
2022/07/05 03:38:24;;;;;;;0.00;0.00;;;14.60;99.90;;;;;;4957941;29;20469;-92
2022/07/05 03:40:52;;;;;;;0.00;0.00;;;14.50;99.90;;;;;;4983995;28;20459;-93
2022/07/05 03:43:21;;;;;;;0.00;0.00;;;14.50;99.90;;;;;;5003062;28;20513;-94
2022/07/05 03:45:49;;;;;;;0.00;0.00;;;14.50;99.90;;;;;;5005254;28;20459;-94
2022/07/05 03:48:17;;;;;;;0.00;0.00;;;14.50;99.90;;;;;;5007137;28;20435;-95
2022/07/05 03:51:07;;;;;;;0.00;0.00;;;14.50;99.90;;;;;;5007062;28;20447;-95
2022/07/05 03:53:35;;;;;;;0.00;0.00;;;14.50;99.90;;;;;;5006706;28;20474;-93
2022/07/05 03:56:04;;;;;;;0.00;0.00;;;14.50;99.90;;;;;;5006183;28;20467;-93
2022/07/05 03:58:32;;;;;;;0.00;0.00;;;14.50;99.90;;;;;;4997658;28;20455;-92
2022/07/05 04:01:00;;;;;;;0.00;0.00;;;14.50;99.90;;;;;;4997369;28;20634;-92
2022/07/05 04:03:29;;;;;;;0.00;0.00;;;14.50;99.90;;;;;;4996836;28;20594;-93
2022/07/05 04:05:57;;;;;;;0.00;0.00;;;14.50;99.90;;;;;;5000784;28;20461;-93
2022/07/05 04:08:27;;;;;;;0.00;0.00;;;14.60;99.90;;;;;;5001549;28;20517;-93
2022/07/05 04:10:55;;;;;;;0.00;0.00;;;14.60;99.90;;;;;;5000662;28;21039;-94
2022/07/05 04:13:24;;;;;;;0.00;0.00;;;14.60;99.90;;;;;;5002279;28;20471;-94
2022/07/05 04:15:53;;;;;;;0.00;0.00;;;14.60;99.90;;;;;;5008780;28;20439;-93
2022/07/05 04:18:21;;;;;;;0.00;0.00;;;14.70;99.90;;;;;;5008534;28;20470;-93
2022/07/05 04:20:49;;;;;;;0.00;0.00;;;14.60;99.90;;;;;;5002905;28;20869;-93
2022/07/05 04:23:19;;;;;;;0.00;0.00;;;14.70;99.90;;;;;;5000969;28;20543;-93
2022/07/05 04:25:49;;;;;;;0.00;0.00;;;14.70;99.90;;;;;;5001755;28;20507;-92
2022/07/05 04:28:17;;;;;;;0.00;0.00;;;14.70;99.90;;;;;;4999362;28;20458;-93
2022/07/05 04:30:46;;;;;;;0.00;0.00;;;14.70;99.90;;;;;;4997558;28;20459;-93
2022/07/05 04:33:14;;;;;;;0.00;0.00;;;14.70;99.90;;;;;;4995359;28;21004;-93
2022/07/05 04:35:42;;;;;;;0.00;0.00;;;14.70;99.90;;;;;;4996103;28;20459;-92
2022/07/05 04:38:10;;;;;;;0.00;0.00;;;14.70;99.90;;;;;;4994567;28;20485;-91
2022/07/05 04:40:38;;;;;;;0.00;0.00;;;14.80;99.90;;;;;;4991677;28;20809;-91
2022/07/05 04:43:08;;;;;;;0.00;0.00;;;14.90;99.90;;;;;;4997383;28;20498;-95
2022/07/05 04:45:36;;;;;;;0.00;0.00;;;14.90;99.90;;;;;;4999870;28;20513;-92
2022/07/05 04:48:05;;;;;;;0.00;0.00;;;15.00;99.90;;;;;;5008764;28;20529;-91
2022/07/05 04:50:33;;;;;;;0.00;0.00;;;15.00;99.90;;;;;;5009951;28;20502;-92
2022/07/05 04:53:04;;;;;;;0.00;0.00;;;15.00;99.90;;;;;;5005279;28;20806;-90
2022/07/05 04:55:32;;;;;;;0.00;0.00;;;15.10;99.90;;;;;;4998021;28;20930;-91
2022/07/05 04:58:04;;;;;;;0.00;0.00;;;15.10;99.90;;;;;;4997217;28;20894;-90
2022/07/05 05:00:34;;;;;;;0.00;0.00;;;15.20;99.90;;;;;;4998330;28;20450;-92
2022/07/05 05:03:03;;;;;;;0.00;0.00;;;15.30;99.90;;;;;;4997035;28;20479;-92
2022/07/05 05:05:32;;;;;;;0.00;0.00;;;15.40;99.90;;;;;;4998198;28;20769;-92
2022/07/05 05:08:00;;;;;;;0.00;0.00;;;15.50;99.90;;;;;;5000764;28;20450;-92
2022/07/05 05:10:28;;;;;;;0.00;0.00;;;15.50;99.90;;;;;;4999215;28;20553;-94
2022/07/05 05:12:56;;;;;;;0.00;0.00;;;15.60;99.90;;;;;;5001495;28;20470;-93
2022/07/05 05:15:26;;;;;;;0.00;0.00;;;15.60;99.90;;;;;;5000837;28;20482;-91
2022/07/05 05:17:55;;;;;;;0.00;0.00;;;15.60;99.90;;;;;;4998027;28;20813;-92
2022/07/05 05:20:24;;;;;;;0.00;0.00;;;15.70;99.90;;;;;;4998894;28;20662;-92
2022/07/05 05:22:53;;;;;;;0.00;0.00;;;15.80;99.90;;;;;;4998140;28;20808;-92
2022/07/05 05:25:21;;;;;;;0.00;0.00;;;15.90;99.90;;;;;;4999756;28;20479;-93
2022/07/05 05:27:51;;;;;;;0.00;0.00;;;16.10;99.90;;;;;;5000775;28;20451;-93
2022/07/05 05:30:20;;;;;;;0.00;0.00;;;16.30;99.90;;;;;;5000087;28;20534;-93
2022/07/05 05:32:48;;;;;;;0.00;0.00;;;16.40;99.90;;;;;;5002029;28;20574;-92
2022/07/05 05:35:20;;;;;;;0.00;0.00;;;16.60;99.90;;;;;;5000903;28;20451;-94
2022/07/05 05:37:53;;;;;;;0.00;0.00;;;16.80;99.90;;;;;;4998259;28;20865;-93
2022/07/05 05:40:22;;;;;;;0.00;0.00;;;16.80;99.90;;;;;;5002209;28;20442;-93
2022/07/05 05:42:52;;;;;;;0.00;0.00;;;16.80;99.90;;;;;;4987379;28;20479;-92
2022/07/05 05:45:23;;;;;;;0.00;0.00;;;16.70;99.90;;;;;;5002543;28;20490;-91
2022/07/05 05:47:53;;;;;;;0.00;0.00;;;16.70;99.90;;;;;;5012619;28;20428;-92
2022/07/05 05:50:24;;;;;;;0.00;0.00;;;16.70;99.90;;;;;;5006792;28;20446;-92
2022/07/05 05:52:54;;;;;;;0.00;0.00;;;16.70;99.90;;;;;;5006421;28;21008;-92
2022/07/05 05:55:24;;;;;;;0.00;0.00;;;16.70;99.90;;;;;;5005128;28;20538;-92
2022/07/05 05:57:57;;;;;;;0.00;0.00;;;16.80;99.90;;;;;;5006528;28;20471;-93
2022/07/05 06:03:10;;;;;;;0.00;0.00;;;17.20;99.90;;;;;;4942995;29;20506;-93
2022/07/05 06:05:41;;;;;;;0.00;0.00;;;17.40;99.90;;;;;;4942249;28;20495;-93
2022/07/05 06:08:09;;;;;;;0.00;0.00;;;17.60;99.90;;;;;;4920809;29;20451;-92
2022/07/05 06:10:38;;;;;;;0.00;0.00;;;17.80;99.90;;;;;;4919701;29;20532;-92
2022/07/05 06:13:09;;;;;;;0.00;0.00;;;18.00;99.90;;;;;;4916352;29;20475;-92
2022/07/05 06:15:39;;;;;;;0.00;0.00;;;18.20;99.90;;;;;;4913872;29;20574;-92
2022/07/05 06:18:09;;;;;;;0.00;0.00;;;18.30;99.90;;;;;;4914464;29;20483;-90
2022/07/05 06:20:40;;;;;;;0.00;0.00;;;18.40;99.90;;;;;;4915005;29;20791;-91
2022/07/05 06:23:08;;;;;;;0.00;0.00;;;18.50;99.90;;;;;;4943513;28;20487;-91
2022/07/05 06:25:37;;;;;;;0.00;0.00;;;18.60;99.90;;;;;;4994135;28;20513;-90
2022/07/05 06:28:06;;;;;;;0.00;0.00;;;18.60;99.90;;;;;;5000263;28;20437;-93
2022/07/05 06:30:39;;;;;;;0.00;0.00;;;18.60;99.90;;;;;;5007685;28;20565;-94
2022/07/05 06:33:08;;;;;;;0.00;0.00;;;18.70;99.90;;;;;;5005577;28;20549;-93
2022/07/05 06:36:12;;;;;;;0.00;0.00;;;18.80;99.90;;;;;;5012558;28;20481;-93
2022/07/05 06:38:42;;;;;;;0.00;0.00;;;18.80;99.90;;;;;;4933165;29;20458;-93
2022/07/05 06:41:14;;;;;;;0.00;0.00;;;18.80;99.90;;;;;;4933090;29;20452;-92
2022/07/05 06:43:44;;;;;;;0.00;0.00;;;18.70;99.90;;;;;;4932045;29;20488;-89
2022/07/05 06:46:13;;;;;;;0.00;0.00;;;18.70;99.90;;;;;;4933594;29;20546;-91
2022/07/05 06:48:44;;;;;;;0.00;0.00;;;18.80;99.90;;;;;;4935186;29;20464;-94
2022/07/05 06:51:20;;;;;;;0.00;0.00;;;19.10;99.90;;;;;;4932918;29;20456;-93
2022/07/05 06:53:50;;;;;;;0.00;0.00;;;19.10;99.90;;;;;;4920932;29;20494;-94
2022/07/05 06:57:08;;;;;;;0.00;0.00;;;19.20;99.90;;;;;;4933469;29;20509;-94
2022/07/05 06:59:53;;;;;;;0.00;0.00;;;19.20;99.90;;;;;;5014562;23;20636;-74
2022/07/05 07:02:23;;;;;;;0.00;0.00;;;19.10;99.90;;;;;;4998864;28;21006;-73
2022/07/05 07:04:52;;;;;;;0.00;0.00;;;19.00;99.90;;;;;;4998237;28;20964;-73
2022/07/05 07:10:24;;;;;;;0.00;0.00;;;19.40;99.90;;;;;;4998267;28;20903;-72
2022/07/05 07:12:56;;;;;;;0.00;0.00;;;19.60;99.90;;;;;;4998206;28;20454;-72
2022/07/05 07:15:25;;;;;;;0.00;0.00;;;20.00;99.90;;;;;;4997846;28;20470;-72
2022/07/05 07:17:53;;;;;;;0.00;0.00;;;20.20;99.90;;;;;;4998141;28;20905;-74
2022/07/05 07:20:20;;;;;;;0.00;0.00;;;20.40;99.90;;;;;;4998489;28;20527;-71
2022/07/05 07:22:49;;;;;;;0.00;0.00;;;20.50;99.90;;;;;;4998279;28;20448;-73
2022/07/05 07:25:17;;;;;;;0.00;0.00;;;20.60;99.90;;;;;;4998344;28;20616;-72
2022/07/05 07:27:49;;;;;;;0.00;0.00;;;20.50;99.90;;;;;;4998093;28;20698;-72
2022/07/05 07:30:19;;;;;;;0.00;0.00;;;20.50;99.90;;;;;;4998347;28;20448;-74
2022/07/05 07:32:47;;;;;;;0.00;0.00;;;20.40;99.90;;;;;;4997642;28;20656;-74
2022/07/05 07:35:15;;;;;;;0.00;0.00;;;20.40;99.90;;;;;;4997073;28;20957;-74
2022/07/05 07:37:43;;;;;;;0.00;0.00;;;20.40;99.90;;;;;;4997135;28;20568;-73
2022/07/05 07:40:11;;;;;;;0.00;0.00;;;20.50;99.90;;;;;;4998284;28;20438;-74
2022/07/05 07:42:39;;;;;;;0.00;0.00;;;20.70;99.90;;;;;;4998082;28;20530;-71
2022/07/05 07:45:10;;;;;;;0.00;0.00;;;20.80;99.90;;;;;;4998068;28;20492;-74
2022/07/05 07:47:38;;;;;;;0.00;0.00;;;20.90;99.90;;;;;;4998047;28;20466;-74
2022/07/05 07:50:07;;;;;;;0.00;0.00;;;21.00;99.90;;;;;;4998601;28;20469;-73
2022/07/05 07:52:36;;;;;;;0.00;0.00;;;21.00;99.90;;;;;;4997694;28;21002;-73
2022/07/05 07:55:05;;;;;;;0.00;0.00;;;21.00;99.90;;;;;;4997925;28;20941;-72
2022/07/05 07:57:33;;;;;;;0.00;0.00;;;21.00;99.90;;;;;;4998022;28;20474;-73
2022/07/05 08:00:01;;;;;;;0.00;0.00;;;20.80;99.90;;;;;;4997653;28;20730;-73
2022/07/05 08:02:30;;;;;;;0.00;0.00;;;20.70;99.90;;;;;;4997886;28;20445;-70
2022/07/05 08:04:58;;;;;;;0.00;0.00;;;20.50;99.90;;;;;;4998157;28;20955;-73
2022/07/05 08:07:27;;;;;;;0.00;0.00;;;20.30;99.90;;;;;;4997916;28;20474;-72
2022/07/05 08:09:54;;;;;;;0.00;0.00;;;20.20;99.90;;;;;;4999118;28;20462;-73
2022/07/05 08:12:22;;;;;;;0.00;0.00;;;20.00;99.90;;;;;;5001674;28;20739;-73
2022/07/05 08:14:50;;;;;;;0.00;0.00;;;19.80;99.90;;;;;;5002339;28;20800;-72
2022/07/05 08:17:20;;;;;;;0.00;0.00;;;19.70;99.90;;;;;;5001737;28;20874;-73
2022/07/05 08:22:35;;;;;;;0.00;0.00;;;19.90;99.90;;;;;;5001390;28;20580;-73
2022/07/05 08:25:03;;;;;;;0.00;0.00;;;20.10;99.90;;;;;;5002093;28;20576;-73
2022/07/05 08:27:31;;;;;;;0.00;0.00;;;20.20;99.90;;;;;;5001315;28;21013;-73
2022/07/05 08:29:59;;;;;;;0.00;0.00;;;20.30;99.90;;;;;;5001691;28;20446;-73
2022/07/05 08:32:27;;;;;;;0.00;0.00;;;20.40;99.90;;;;;;5001733;28;20442;-73
2022/07/05 08:34:56;;;;;;;0.00;0.00;;;20.50;99.90;;;;;;5001814;28;21065;-73
2022/07/05 08:37:23;;;;;;;0.00;0.00;;;20.60;99.90;;;;;;5001773;28;20919;-73
2022/07/05 08:39:51;;;;;;;0.00;0.00;;;20.80;99.90;;;;;;5001489;28;20512;-74
2022/07/05 08:42:19;;;;;;;0.00;0.00;;;21.10;99.90;;;;;;5001414;28;20827;-73
2022/07/05 08:44:51;;;;;;;0.00;0.00;;;21.20;99.90;;;;;;5001345;28;21048;-72
2022/07/05 08:47:20;;;;;;;0.00;0.00;;;21.30;99.90;;;;;;5000918;28;20492;-73
2022/07/05 08:49:50;;;;;;;0.00;0.00;;;21.30;99.90;;;;;;5001613;28;20474;-74
2022/07/05 08:52:19;;;;;;;0.00;0.00;;;21.20;99.90;;;;;;5001536;28;20452;-73
2022/07/05 08:54:51;;;;;;;0.00;0.00;;;21.30;99.90;;;;;;5001886;28;20445;-73
2022/07/05 08:57:19;;;;;;;0.00;0.00;;;21.40;99.90;;;;;;5001700;28;20485;-73
2022/07/05 08:59:47;;;;;;;0.00;0.00;;;21.60;99.90;;;;;;5000302;28;20458;-74
2022/07/05 09:02:18;;;;;;;0.00;0.00;;;21.80;99.90;;;;;;5000972;28;21000;-73
2022/07/05 09:04:46;;;;;;;0.00;0.00;;;21.90;99.90;;;;;;5001277;28;21092;-74
2022/07/05 09:07:17;;;;;;;0.00;0.00;;;21.90;99.90;;;;;;5000970;28;21032;-71
2022/07/05 09:09:51;;;;;;;0.00;0.00;;;21.90;99.50;;;;;;5001898;28;20474;-72
2022/07/05 09:12:19;;;;;;;0.00;0.00;;;21.80;99.90;;;;;;5000966;28;20444;-74
2022/07/05 09:14:53;;;;;;;0.00;0.00;;;21.70;99.90;;;;;;5001340;28;20455;-73
2022/07/05 09:17:21;;;;;;;0.00;0.00;;;21.70;99.90;;;;;;5001079;28;20474;-73
2022/07/05 09:20:09;;;;;;;0.00;0.00;;;21.70;99.90;;;;;;5000786;28;20481;-73
2022/07/05 09:22:48;;;;;;;0.00;0.00;;;21.70;99.70;;;;;;4999582;28;20466;-73
2022/07/05 09:25:23;;;;;;;0.00;0.00;;;21.70;99.80;;;;;;5000812;28;21153;-74
2022/07/05 09:27:53;;;;;;;0.00;0.00;;;21.80;99.90;;;;;;5000431;28;20885;-73
2022/07/05 09:30:33;;;;;;;0.00;0.00;;;22.00;99.80;;;;;;5000733;28;20485;-72
2022/07/05 09:33:08;;;;;;;0.00;0.00;;;22.00;99.90;;;;;;5002048;28;20447;-72
2022/07/05 09:35:38;;;;;;;0.00;0.00;;;22.00;99.90;;;;;;5000488;28;20739;-74
2022/07/05 09:38:07;;;;;;;0.00;0.00;;;22.10;99.90;;;;;;5000292;28;20553;-73
2022/07/05 09:40:48;;;;;;;0.00;0.00;;;22.10;99.90;;;;;;5000240;28;20532;-74
2022/07/05 09:43:18;;;;;;;0.00;0.00;;;22.10;99.90;;;;;;5000313;28;20779;-74
2022/07/05 09:45:54;;;;;;;0.00;0.00;;;22.10;99.90;;;;;;5000696;28;20442;-74
2022/07/05 09:48:22;;;;;;;0.00;0.00;;;22.10;99.90;;;;;;5001827;28;20962;-73
2022/07/05 09:51:06;;;;;;;0.00;0.00;;;22.10;99.90;;;;;;5000642;28;20489;-74
2022/07/05 09:53:56;;;;;;;0.00;0.00;;;22.00;99.80;;;;;;5000430;28;20549;-72
2022/07/05 09:56:30;;;;;;;0.00;0.00;;;21.60;99.90;;;;;;5000460;28;20481;-75
2022/07/05 09:59:14;;;;;;;0.00;0.00;;;21.30;99.90;;;;;;4999251;28;20589;-73
2022/07/05 10:01:42;;;;;;;0.00;0.00;;;21.10;99.90;;;;;;4991056;28;20466;-74
2022/07/05 10:04:10;;;;;;;0.00;0.00;;;21.00;99.90;;;;;;4980273;28;20482;-74
2022/07/05 10:06:38;;;;;;;0.00;0.00;;;20.90;99.90;;;;;;4982412;28;20486;-74
2022/07/05 10:09:07;;;;;;;0.00;0.00;;;21.00;99.90;;;;;;4979541;28;20550;-72
2022/07/05 10:11:40;;;;;;;0.00;0.00;;;21.10;99.70;;;;;;4981979;28;20846;-73
2022/07/05 10:14:12;;;;;;;0.00;0.00;;;21.20;99.60;;;;;;4991568;28;20946;-72
2022/07/05 10:16:40;;;;;;;0.00;0.00;;;21.30;99.90;;;;;;4999087;28;20461;-72
2022/07/05 10:19:15;;;;;;;0.00;0.00;;;21.50;99.90;;;;;;4999345;28;20449;-77
2022/07/05 10:21:44;;;;;;;0.00;0.00;;;21.80;99.90;;;;;;4991981;28;20961;-73
2022/07/05 10:24:35;;;;;;;0.00;0.00;;;21.90;99.90;;;;;;4986163;28;20729;-72
2022/07/05 10:27:08;;;;;;;0.00;0.00;;;22.00;99.60;;;;;;4987610;28;20569;-73
2022/07/05 10:29:37;;;;;;;0.00;0.00;;;22.00;99.70;;;;;;4986674;28;20454;-73
2022/07/05 10:32:08;;;;;;;0.00;0.00;;;22.00;99.60;;;;;;4987229;28;20459;-76
2022/07/05 10:34:36;;;;;;;0.00;0.00;;;21.90;99.70;;;;;;4986425;28;20558;-76
2022/07/05 10:37:25;;;;;;;0.00;0.00;;;21.80;99.30;;;;;;4998063;28;20529;-77
2022/07/05 10:39:53;;;;;;;0.00;0.00;;;21.90;99.00;;;;;;4980727;28;20519;-75
2022/07/05 10:42:24;;;;;;;0.00;0.00;;;21.90;98.90;;;;;;4980751;28;20503;-76
2022/07/05 10:44:52;;;;;;;0.00;0.00;;;22.00;99.00;;;;;;4980617;28;20514;-76
2022/07/05 10:47:20;;;;;;;0.00;0.00;;;22.10;98.80;;;;;;4981402;28;20757;-74
2022/07/05 10:50:01;;;;;;;0.00;0.00;;;22.30;98.40;;;;;;4982574;28;20449;-74
2022/07/05 10:52:29;;;;;;;0.00;0.00;;;22.50;98.00;;;;;;4991057;28;20483;-75
2022/07/05 10:55:22;;;;;;;0.00;0.00;;;22.70;98.00;;;;;;4983461;28;20614;-77
2022/07/05 10:58:21;;;;;;;0.00;0.00;;;22.80;98.10;;;;;;4987803;28;21161;-73
2022/07/05 11:01:41;;;;;;;0.00;0.00;;;22.80;98.10;;;;;;4985442;28;20461;-73
2022/07/05 11:04:35;;;;;;;0.00;0.00;;;22.60;98.50;;;;;;4983127;28;20480;-73
2022/07/05 11:07:04;;;;;;;0.00;0.00;;;22.30;98.80;;;;;;4985061;28;20880;-76
2022/07/05 11:09:32;;;;;;;0.00;0.00;;;22.20;98.80;;;;;;4989752;28;20754;-75
2022/07/05 11:12:18;;;;;;;0.00;0.00;;;22.20;98.70;;;;;;4986191;28;20462;-75
2022/07/05 11:15:07;;;;;;;0.00;0.00;;;22.30;98.90;;;;;;4988487;28;20557;-75
2022/07/05 11:17:36;;;;;;;0.00;0.00;;;22.40;98.60;;;;;;4983029;28;20463;-74
2022/07/05 11:20:31;;;;;;;0.00;0.00;;;22.40;98.80;;;;;;4988722;28;20483;-75
2022/07/05 11:23:04;;;;;;;0.00;0.00;;;22.50;98.60;;;;;;4990794;28;20732;-74
2022/07/05 11:25:33;;;;;;;0.00;0.00;;;22.60;97.80;;;;;;4995923;28;20456;-74
2022/07/05 11:28:13;;;;;;;0.00;0.00;;;22.70;97.70;;;;;;4985015;28;20704;-73
2022/07/05 11:30:50;;;;;;;0.00;0.00;;;22.70;97.90;;;;;;4989545;28;20531;-73
2022/07/05 11:33:29;;;;;;;0.00;0.00;;;22.70;97.80;;;;;;4991192;28;20518;-75
2022/07/05 11:35:57;;;;;;;0.00;0.00;;;22.60;98.10;;;;;;4982406;28;20950;-74
2022/07/05 11:38:26;;;;;;;0.00;0.00;;;22.50;98.70;;;;;;4986722;28;20464;-73
2022/07/05 11:41:13;;;;;;;0.00;0.00;;;22.40;98.00;;;;;;4986743;28;20460;-73
2022/07/05 11:43:42;;;;;;;0.00;0.00;;;22.30;98.30;;;;;;4984585;28;20448;-74
2022/07/05 11:46:11;;;;;;;0.00;0.00;;;22.20;98.70;;;;;;4982024;28;20567;-73
2022/07/05 11:49:01;;;;;;;0.00;0.00;;;22.30;98.80;;;;;;4983424;28;20476;-72
2022/07/05 11:51:29;;;;;;;0.00;0.00;;;22.30;98.40;;;;;;4986727;28;20499;-74
2022/07/05 11:53:57;;;;;;;0.00;0.00;;;22.30;98.50;;;;;;4989391;28;20456;-73
2022/07/05 11:56:45;;;;;;;0.00;0.00;;;22.40;98.50;;;;;;4990553;28;20744;-74
2022/07/05 11:59:20;;;;;;;0.00;0.00;;;22.60;98.90;;;;;;4991447;28;20449;-76
2022/07/05 12:01:50;;;;;;;0.00;0.00;;;22.70;98.90;;;;;;4985140;28;20464;-75
2022/07/05 12:04:25;;;;;;;0.00;0.00;;;22.90;99.30;;;;;;4986921;28;20761;-73
2022/07/05 12:06:55;;;;;;;0.00;0.00;;;23.00;98.90;;;;;;4983818;28;20492;-75
2022/07/05 12:09:25;;;;;;;0.00;0.00;;;23.00;98.90;;;;;;4987320;28;20510;-75
2022/07/05 12:14:48;;;;;;;0.00;0.00;;;23.00;98.20;;;;;;4992532;28;21087;-76
2022/07/05 12:17:18;;;;;;;0.00;0.00;;;22.90;98.90;;;;;;4992951;28;20599;-74
2022/07/05 12:19:53;;;;;;;0.00;0.00;;;23.00;98.50;;;;;;4985012;28;20830;-74
2022/07/05 12:22:29;;;;;;;0.00;0.00;;;23.10;98.10;;;;;;4982699;28;20476;-73
2022/07/05 12:24:58;;;;;;;0.00;0.00;;;23.30;98.40;;;;;;4988212;28;20460;-72
2022/07/05 12:27:26;;;;;;;0.00;0.00;;;23.40;97.90;;;;;;4986267;28;20532;-74
2022/07/05 12:29:54;;;;;;;0.00;0.00;;;23.50;98.30;;;;;;4988150;28;20616;-73
2022/07/05 12:32:23;;;;;;;0.00;0.00;;;23.60;97.70;;;;;;4993961;28;20463;-74
2022/07/05 12:34:52;;;;;;;0.00;0.00;;;23.50;97.90;;;;;;4993237;28;20555;-74
2022/07/05 12:37:23;;;;;;;0.00;0.00;;;23.40;98.00;;;;;;4993851;28;20477;-72
2022/07/05 12:40:04;;;;;;;0.00;0.00;;;23.30;98.30;;;;;;4988621;28;20453;-73
2022/07/05 12:42:33;;;;;;;0.00;0.00;;;23.10;98.40;;;;;;4985480;28;20513;-73
2022/07/05 12:45:10;;;;;;;0.00;0.00;;;23.00;98.40;;;;;;4981211;28;20478;-73
2022/07/05 12:47:49;;;;;;;0.00;0.00;;;22.80;98.40;;;;;;4985209;28;20838;-71
2022/07/05 12:50:17;;;;;;;0.00;0.00;;;22.70;98.60;;;;;;4983058;28;20560;-72
2022/07/05 12:52:59;;;;;;;0.00;0.00;;;22.80;98.60;;;;;;4987248;28;20674;-74
2022/07/05 12:58:20;;;;;;;0.00;0.00;;;23.00;98.70;;;;;;4985381;28;20879;-73
2022/07/05 13:00:49;;;;;;;0.00;0.00;;;23.10;98.70;;;;;;4991654;28;20467;-73
2022/07/05 13:03:18;;;;;;;0.00;0.00;;;23.10;98.70;;;;;;4994331;28;20460;-73
2022/07/05 13:06:02;;;;;;;0.00;0.00;;;23.10;99.00;;;;;;4982091;28;20450;-75
2022/07/05 13:08:30;;;;;;;0.00;0.00;;;23.10;99.40;;;;;;4982234;28;20647;-76
2022/07/05 13:10:58;;;;;;;0.00;0.00;;;23.30;99.40;;;;;;4986451;28;20568;-74
2022/07/05 13:13:26;;;;;;;0.00;0.00;;;23.40;99.10;;;;;;4989112;28;21031;-74
2022/07/05 13:15:55;;;;;;;0.00;0.00;;;23.50;99.00;;;;;;4994443;28;20460;-73
2022/07/05 13:18:27;;;;;;;0.00;0.00;;;23.50;99.00;;;;;;4990881;28;20478;-74
2022/07/05 13:20:55;;;;;;;0.00;0.00;;;23.60;98.70;;;;;;4990516;28;20455;-74
2022/07/05 13:23:23;;;;;;;0.00;0.00;;;23.60;98.90;;;;;;4986423;28;20865;-74
2022/07/05 13:25:52;;;;;;;0.00;0.00;;;23.60;98.60;;;;;;4988849;28;20519;-74
2022/07/05 13:28:20;;;;;;;0.00;0.00;;;23.50;98.90;;;;;;4980772;28;20500;-73
2022/07/05 13:30:48;;;;;;;0.00;0.00;;;23.30;98.90;;;;;;4991924;28;20512;-72
2022/07/05 13:33:16;;;;;;;0.00;0.00;;;23.10;99.00;;;;;;4988081;28;20602;-72
2022/07/05 13:35:46;;;;;;;0.00;0.00;;;22.90;99.20;;;;;;4987918;28;20448;-72
2022/07/05 13:38:14;;;;;;;0.00;0.00;;;22.80;99.90;;;;;;4985097;28;21052;-72